Terminal Aerodrome Forecast
Issued by NWS

Home | Current Version | Previous Version | Text Only | Print | Product List | Glossary Off
Versions: 1 2 3 4 5 6 7 8 9 10 11 12 13 14 15 16 17 18 19 20 21 22

000
FTUS43 KOAX 220526
TAFCDR
TAF
KCDR 220526Z 2206/2306 15013KT P6SM OVC050
     FM221200 16010KT 4SM BR OVC025
     FM221400 15014KT 1SM -RA OVC015
     FM221800 13015KT 3SM -RA OVC015
     FM230100 14010KT 1SM -RA BR OVC008=

USA.gov is the U.S. government's official web portal to all federal, state and local government web resources and services.